Time;durP1;ratioP1;P1;durP2;ratioP2;P2;SDS_P1;SDS_P2;PMS_P1;PMS_P2;Temp;Humidity;BMP_temperature;BMP_pressure;BME280_temperature;BME280_humidity;BME280_pressure;Samples;Min_cycle;Max_cycle;Signal;HPM_P1;HPM_P2
2024/02/04 00:01:27;;;;;;;40.70;15.43;;;11.90;99.90;;;12.19;100.00;102299.94;4992518;28;20038;-69
2024/02/04 00:03:55;;;;;;;39.47;14.77;;;11.90;99.90;;;12.18;100.00;102301.69;4992591;28;20079;-68
2024/02/04 00:06:24;;;;;;;42.35;14.05;;;11.90;99.90;;;12.21;100.00;102292.88;4992545;28;20129;-69
2024/02/04 00:08:54;;;;;;;42.55;15.93;;;12.00;99.90;;;12.21;100.00;102299.09;4992447;28;20046;-70
2024/02/04 00:11:22;;;;;;;41.43;15.83;;;12.00;99.90;;;12.23;100.00;102293.78;4992616;28;20452;-69
2024/02/04 00:13:51;;;;;;;44.30;15.93;;;12.00;99.90;;;12.21;100.00;102292.88;4993300;28;20100;-69
2024/02/04 00:16:19;;;;;;;44.50;15.85;;;12.00;99.90;;;12.21;100.00;102292.88;4992859;28;20054;-70
2024/02/04 00:18:47;;;;;;;42.70;16.05;;;12.00;99.90;;;12.23;100.00;102291.13;4992479;28;20057;-69
2024/02/04 00:21:16;;;;;;;41.30;15.60;;;12.00;99.90;;;12.22;100.00;102307.91;4993135;28;20092;-69
2024/02/04 00:23:44;;;;;;;41.92;15.95;;;12.00;99.90;;;11.61;100.00;102185.16;4993340;28;20121;-69
2024/02/04 00:26:14;;;;;;;42.72;15.45;;;12.00;99.90;;;12.19;100.00;102279.59;4994457;28;20101;-69
2024/02/04 00:28:43;;;;;;;44.27;15.67;;;12.00;99.90;;;12.19;100.00;102271.66;4994070;28;20050;-69
2024/02/04 00:31:11;;;;;;;42.75;15.98;;;12.00;99.90;;;12.22;100.00;102270.75;4992901;28;20113;-69
2024/02/04 00:33:40;;;;;;;44.28;15.25;;;12.00;99.90;;;12.21;100.00;102271.66;4994426;28;20152;-69
2024/02/04 00:36:09;;;;;;;52.17;17.48;;;12.00;99.90;;;12.11;100.00;102285.69;4994048;28;20109;-69
2024/02/04 00:38:37;;;;;;;47.67;16.63;;;12.00;99.90;;;12.15;100.00;102280.44;4993986;28;20046;-69
2024/02/04 00:41:06;;;;;;;44.97;17.45;;;11.90;99.90;;;12.17;100.00;102275.16;4993888;28;20101;-69
2024/02/04 00:43:35;;;;;;;42.00;15.73;;;11.90;99.90;;;12.19;100.00;102253.06;4993793;28;20073;-69
2024/02/04 00:46:04;;;;;;;37.00;16.23;;;12.00;99.90;;;12.21;100.00;102267.25;4993189;28;20038;-69
2024/02/04 00:48:33;;;;;;;37.83;16.02;;;12.00;99.90;;;12.19;100.00;102252.19;4993739;28;20044;-69
2024/02/04 00:51:02;;;;;;;42.70;16.10;;;12.00;99.90;;;12.24;100.00;102246.03;4992410;28;20050;-69
2024/02/04 00:53:33;;;;;;;36.33;16.27;;;12.00;99.90;;;12.25;100.00;102238.97;4993248;28;20038;-69
2024/02/04 00:56:04;;;;;;;39.50;16.50;;;12.10;99.90;;;12.32;100.00;102246.13;4992282;28;20069;-69
2024/02/04 00:58:32;;;;;;;46.20;16.45;;;12.10;99.90;;;12.32;100.00;102239.06;4993504;28;20050;-69
2024/02/04 01:01:02;;;;;;;36.63;15.25;;;12.10;99.90;;;12.34;100.00;102247.03;4993467;28;20050;-69
2024/02/04 01:03:32;;;;;;;36.45;15.52;;;12.10;99.90;;;12.37;100.00;102239.09;4992073;28;20137;-69
2024/02/04 01:06:01;;;;;;;36.33;13.95;;;12.20;99.90;;;12.35;100.00;102230.25;4993340;28;20377;-69
2024/02/04 01:08:29;;;;;;;37.58;15.20;;;12.10;99.90;;;12.33;100.00;102247.91;4992068;28;20076;-68
2024/02/04 01:10:58;;;;;;;40.63;15.70;;;12.10;99.90;;;12.29;100.00;102239.00;4993498;28;20076;-69
2024/02/04 01:13:26;;;;;;;42.25;15.52;;;12.10;99.90;;;12.32;100.00;102238.16;4993280;28;20046;-69
2024/02/04 01:15:54;;;;;;;40.97;16.02;;;12.10;99.90;;;12.37;100.00;102244.41;5008439;28;20081;-69
2024/02/04 01:18:24;;;;;;;42.83;17.13;;;12.10;99.90;;;12.35;100.00;102252.34;4993204;28;20113;-69
2024/02/04 01:20:53;;;;;;;40.75;16.10;;;12.10;99.90;;;12.34;100.00;102247.94;4993229;28;20042;-68
2024/02/04 01:23:21;;;;;;;43.88;16.20;;;12.10;99.90;;;12.41;100.00;102249.75;4991448;28;20045;-69
2024/02/04 01:25:50;;;;;;;48.10;15.73;;;12.20;99.90;;;12.44;100.00;102243.59;4992774;28;20057;-69
2024/02/04 01:28:18;;;;;;;41.17;14.75;;;12.20;99.90;;;12.40;100.00;102247.09;4991638;28;20133;-69
2024/02/04 01:30:46;;;;;;;33.28;13.20;;;12.20;99.90;;;12.32;100.00;102240.81;4992921;28;20042;-69
2024/02/04 01:33:15;;;;;;;40.65;13.25;;;12.10;99.90;;;12.31;100.00;102250.53;4993070;28;20372;-69
2024/02/04 01:35:45;;;;;;;39.60;14.18;;;12.10;99.90;;;12.26;100.00;102249.59;4991631;28;20058;-69
2024/02/04 01:38:14;;;;;;;39.28;13.85;;;12.10;99.90;;;12.35;100.00;102259.44;4991485;28;20059;-69
2024/02/04 01:40:42;;;;;;;44.33;13.75;;;12.10;99.90;;;12.25;100.00;102255.75;4992839;28;20034;-68
2024/02/04 01:43:11;;;;;;;36.58;12.88;;;12.00;99.90;;;12.33;100.00;102256.75;4992862;28;20144;-69
2024/02/04 01:45:39;;;;;;;35.75;13.32;;;12.10;99.90;;;12.33;100.00;102256.75;4992846;28;20048;-69
2024/02/04 01:48:08;;;;;;;35.03;12.55;;;12.00;99.90;;;12.25;100.00;102258.41;4992543;28;20488;-69
2024/02/04 01:50:37;;;;;;;39.30;12.48;;;12.00;99.90;;;12.33;100.00;102261.19;4992755;28;20042;-69
2024/02/04 01:53:07;;;;;;;29.33;12.20;;;12.10;99.90;;;12.17;100.00;102264.53;4992792;28;20116;-69
2024/02/04 01:55:35;;;;;;;32.92;12.32;;;11.90;99.90;;;12.25;100.00;102270.81;4991439;28;20492;-68
2024/02/04 01:58:04;;;;;;;32.60;12.95;;;12.00;99.90;;;12.25;100.00;102263.72;5008753;28;20042;-69
2024/02/04 02:00:33;;;;;;;26.42;11.23;;;12.00;99.90;;;12.13;100.00;102265.38;5011723;28;20084;-68
2024/02/04 02:03:03;;;;;;;26.95;10.60;;;11.90;99.90;;;11.99;100.00;102274.91;5011663;28;20044;-69
2024/02/04 02:05:31;;;;;;;41.08;14.20;;;11.80;99.90;;;11.86;100.00;102280.94;4996706;28;20073;-69
2024/02/04 02:08:00;;;;;;;37.60;13.93;;;11.70;99.90;;;11.87;100.00;102277.41;4995304;28;20431;-68
2024/02/04 02:10:30;;;;;;;35.25;12.68;;;11.70;99.90;;;11.92;100.00;102299.59;4996565;28;20412;-69
2024/02/04 02:13:07;;;;;;;30.15;12.90;;;11.70;99.90;;;11.83;100.00;102296.81;4995243;28;20054;-69
2024/02/04 02:15:45;;;;;;;31.80;12.40;;;11.60;99.90;;;11.88;100.00;102287.16;4995175;28;20085;-69
2024/02/04 02:18:22;;;;;;;38.00;13.48;;;11.60;99.90;;;11.88;100.00;102280.09;4996658;28;20070;-68
2024/02/04 02:21:18;;;;;;;41.03;12.23;;;11.60;99.90;;;11.86;100.00;102284.50;4995553;28;20046;-68
2024/02/04 02:24:04;;;;;;;30.33;12.32;;;11.60;99.90;;;11.86;100.00;102272.97;4995316;28;20062;-69
2024/02/04 02:26:38;;;;;;;26.65;11.52;;;11.70;99.90;;;12.05;100.00;102283.84;4995187;28;20061;-69
2024/02/04 02:29:08;;;;;;;29.85;11.95;;;11.80;99.90;;;12.12;100.00;102282.13;4996216;28;20065;-68
2024/02/04 02:31:38;;;;;;;23.33;11.10;;;11.90;99.90;;;12.21;100.00;102269.00;4995367;28;20085;-69
2024/02/04 02:34:17;;;;;;;34.75;12.13;;;12.00;99.90;;;12.23;100.00;102264.59;5011472;28;20054;-69
2024/02/04 02:36:57;;;;;;;26.02;12.20;;;12.00;99.90;;;12.14;100.00;102238.84;4995907;28;20042;-69
2024/02/04 02:39:33;;;;;;;23.90;11.82;;;12.10;99.90;;;12.25;100.00;102257.56;4996579;28;20046;-68
2024/02/04 02:42:05;;;;;;;30.45;12.77;;;12.10;99.90;;;12.29;100.00;102246.97;4996322;28;20392;-69
2024/02/04 02:44:35;;;;;;;28.30;12.05;;;12.10;99.90;;;12.38;100.00;102270.97;5011381;28;20403;-69
2024/02/04 02:47:05;;;;;;;24.98;12.05;;;12.20;99.90;;;12.40;100.00;102253.31;4995422;28;20492;-68
2024/02/04 02:49:34;;;;;;;35.22;12.45;;;12.20;99.90;;;12.45;100.00;102266.59;4996388;28;20042;-68
2024/02/04 02:52:03;;;;;;;27.63;12.63;;;12.20;99.90;;;12.43;100.00;102263.94;4996056;28;20047;-69
2024/02/04 02:54:31;;;;;;;30.63;12.57;;;12.20;99.90;;;12.49;100.00;102252.47;4994655;28;20503;-69
2024/02/04 02:56:59;;;;;;;27.77;12.98;;;12.30;99.90;;;12.38;100.00;102260.34;4995666;28;20097;-69
2024/02/04 02:59:30;;;;;;;29.10;12.57;;;12.20;99.90;;;12.44;100.00;102256.88;4996338;28;20053;-69
2024/02/04 03:01:58;;;;;;;;;;;12.20;99.90;;;12.48;100.00;102250.72;4994977;28;20042;-69
2024/02/04 03:04:27;;;;;;;33.97;13.73;;;12.30;99.90;;;12.42;100.00;102246.25;4994532;28;20077;-69
2024/02/04 03:06:56;;;;;;;32.25;13.00;;;12.20;99.90;;;12.28;100.00;102226.63;4993205;28;20053;-69
2024/02/04 03:09:24;;;;;;;28.10;12.43;;;12.10;99.90;;;12.45;100.00;102235.66;4993211;28;20145;-69
2024/02/04 03:11:53;;;;;;;28.25;11.23;;;12.20;99.90;;;12.51;100.00;102240.13;4995139;28;20042;-69
2024/02/04 03:14:22;;;;;;;26.83;10.75;;;12.20;99.90;;;12.54;100.00;102226.91;4995555;28;20042;-69
2024/02/04 03:16:51;;;;;;;28.98;11.30;;;12.30;99.90;;;12.51;100.00;102237.47;4993705;28;20043;-69
2024/02/04 03:19:22;;;;;;;26.63;10.32;;;12.20;99.90;;;12.53;100.00;102241.03;4993187;28;20149;-69
2024/02/04 03:21:51;;;;;;;31.13;11.00;;;12.30;99.90;;;12.51;100.00;102233.06;4992085;28;20038;-69
2024/02/04 03:24:19;;;;;;;36.95;11.55;;;12.30;99.90;;;12.49;100.00;102231.25;4993146;28;20506;-70
2024/02/04 03:26:48;;;;;;;27.88;10.38;;;12.30;99.90;;;12.45;100.00;102213.50;4991990;28;20141;-70
2024/02/04 03:29:16;;;;;;;31.67;11.30;;;12.20;99.90;;;12.42;100.00;102221.47;4992538;28;20038;-69
2024/02/04 03:31:45;;;;;;;28.38;10.25;;;12.20;99.90;;;12.36;100.00;102218.75;4993867;28;20420;-69
2024/02/04 03:34:15;;;;;;;26.52;10.43;;;12.10;99.90;;;12.39;100.00;102229.38;4993507;28;20457;-69
2024/02/04 03:36:43;;;;;;;24.42;10.25;;;12.10;99.90;;;12.47;100.00;102238.31;4992493;28;20058;-69
2024/02/04 03:39:12;;;;;;;29.17;11.35;;;12.20;99.90;;;12.37;100.00;102247.94;4993911;28;20093;-69
2024/02/04 03:41:40;;;;;;;31.02;11.48;;;12.10;99.90;;;12.40;100.00;102236.47;4991986;28;20042;-70
2024/02/04 03:44:08;;;;;;;26.20;10.50;;;12.10;99.90;;;12.33;100.00;102242.59;4991662;28;20085;-69
2024/02/04 03:46:39;;;;;;;31.70;12.13;;;12.10;99.90;;;12.05;100.00;102246.72;4992706;28;20439;-70
2024/02/04 03:49:09;;;;;;;34.13;13.00;;;11.80;99.90;;;11.75;100.00;102244.56;4991593;28;20369;-69
2024/02/04 03:51:39;;;;;;;32.60;13.82;;;11.60;99.90;;;11.57;100.00;102240.75;4991488;28;20058;-69
2024/02/04 03:54:08;;;;;;;31.83;12.13;;;11.40;99.90;;;11.77;100.00;102253.44;4992926;28;20078;-69
2024/02/04 03:56:36;;;;;;;35.10;13.23;;;11.50;99.90;;;11.88;100.00;102252.69;4992484;28;20064;-69
2024/02/04 03:59:06;;;;;;;39.53;14.57;;;11.60;99.90;;;11.99;100.00;102261.66;4991391;28;20045;-68
2024/02/04 04:01:35;;;;;;;32.83;13.68;;;11.70;99.90;;;12.10;100.00;102263.56;4993004;28;20096;-69
2024/02/04 04:04:04;;;;;;;30.92;14.07;;;11.80;99.90;;;12.06;100.00;102239.66;4992636;28;20438;-69
2024/02/04 04:06:32;;;;;;;42.00;14.27;;;11.80;99.90;;;12.16;100.00;102238.88;4991021;28;20076;-69
2024/02/04 04:09:02;;;;;;;43.85;13.45;;;11.90;99.90;;;12.11;100.00;102227.31;4992251;28;20042;-69
2024/02/04 04:11:30;;;;;;;29.87;12.60;;;11.90;99.90;;;12.12;100.00;102219.38;4992275;28;20058;-69
2024/02/04 04:13:59;;;;;;;30.00;13.65;;;11.90;99.90;;;12.21;100.00;102213.28;4992109;28;20116;-69
2024/02/04 04:16:27;;;;;;;36.13;15.95;;;11.90;99.90;;;12.16;100.00;102205.28;4992152;28;20122;-69
2024/02/04 04:18:56;;;;;;;32.53;15.48;;;12.00;99.90;;;12.09;100.00;102205.19;4992091;28;20081;-69
2024/02/04 04:21:24;;;;;;;37.50;14.60;;;11.90;99.90;;;12.09;100.00;102199.88;4991384;28;20053;-69
2024/02/04 04:23:52;;;;;;;32.28;12.80;;;11.90;99.90;;;11.98;100.00;102181.19;4991934;28;20141;-69
2024/02/04 04:26:22;;;;;;;28.48;12.52;;;11.90;99.90;;;12.10;100.00;102199.03;4991748;28;20046;-69
2024/02/04 04:28:51;;;;;;;32.37;12.97;;;11.90;99.90;;;12.04;100.00;102199.84;4991910;28;20148;-69
2024/02/04 04:31:19;;;;;;;38.80;14.60;;;11.90;99.90;;;12.12;100.00;102215.81;4990855;28;20132;-69
2024/02/04 04:33:47;;;;;;;39.78;14.15;;;11.90;99.90;;;12.19;100.00;102209.72;4990660;28;20051;-69
2024/02/04 04:36:16;;;;;;;39.70;15.85;;;12.00;99.90;;;12.11;100.00;102211.41;4991825;28;20046;-69
2024/02/04 04:38:44;;;;;;;36.75;16.52;;;11.90;99.90;;;12.17;100.00;102212.38;4991755;28;20078;-69
2024/02/04 04:41:13;;;;;;;38.35;16.85;;;12.00;99.90;;;12.04;100.00;102209.56;4991945;28;20081;-69
2024/02/04 04:43:42;;;;;;;41.80;16.67;;;11.90;99.90;;;12.06;100.00;102208.69;4992069;28;20046;-69
2024/02/04 04:46:11;;;;;;;36.33;15.80;;;11.80;99.90;;;12.11;100.00;102208.75;4991786;28;20443;-69
2024/02/04 04:48:39;;;;;;;38.60;14.93;;;11.90;99.90;;;12.16;100.00;102207.03;4991750;28;20478;-69
2024/02/04 04:51:09;;;;;;;46.70;15.18;;;12.00;99.90;;;12.12;100.00;102207.88;4991737;28;20124;-69
2024/02/04 04:53:38;;;;;;;35.58;14.48;;;11.90;99.90;;;12.13;100.00;102196.41;4991461;28;20567;-69
2024/02/04 04:56:07;;;;;;;33.83;13.45;;;12.00;99.90;;;12.20;100.00;102200.88;4991475;28;20467;-69
2024/02/04 04:58:36;;;;;;;38.22;13.18;;;12.00;99.90;;;12.18;100.00;102192.03;4991370;28;20459;-69
2024/02/04 05:01:07;;;;;;;37.97;12.75;;;12.00;99.90;;;12.19;100.00;102188.50;4991296;28;20042;-69
2024/02/04 05:03:35;;;;;;;34.95;12.02;;;12.00;99.90;;;12.23;100.00;102196.50;4991571;28;20507;-69
2024/02/04 05:06:05;;;;;;;36.65;12.50;;;12.00;99.90;;;12.16;100.00;102194.66;4991240;28;20474;-70
2024/02/04 05:08:33;;;;;;;34.17;11.80;;;12.00;99.90;;;12.19;100.00;102199.13;4991476;28;20132;-68
2024/02/04 05:11:01;;;;;;;45.35;11.98;;;12.00;99.90;;;12.14;100.00;102206.13;4991505;28;20042;-69
2024/02/04 05:13:30;;;;;;;32.50;11.30;;;11.90;99.90;;;12.03;100.00;102192.75;4991701;28;20506;-68
2024/02/04 05:15:58;;;;;;;33.83;11.23;;;11.90;99.90;;;12.18;100.00;102203.53;4990189;28;20073;-69
2024/02/04 05:18:28;;;;;;;35.50;11.90;;;12.00;99.90;;;12.20;100.00;102190.28;4991727;28;20077;-70
2024/02/04 05:20:56;;;;;;;35.00;10.40;;;12.00;99.90;;;12.27;100.00;102189.47;4991741;28;20124;-69
2024/02/04 05:23:25;;;;;;;42.70;11.07;;;12.00;99.90;;;12.28;100.00;102181.53;4991368;28;20050;-69
2024/02/04 05:25:53;;;;;;;31.02;11.00;;;12.10;99.90;;;12.15;100.00;102174.34;4991004;28;20066;-69
2024/02/04 05:28:21;;;;;;;29.23;10.32;;;12.00;99.90;;;12.11;100.00;102176.94;4991124;28;20050;-69
2024/02/04 05:30:50;;;;;;;32.60;11.38;;;11.90;99.90;;;12.09;100.00;102183.97;4991082;28;20144;-69
2024/02/04 05:33:18;;;;;;;32.55;12.52;;;11.90;99.90;;;12.09;100.00;102181.31;4990183;28;20034;-69
2024/02/04 05:35:48;;;;;;;32.63;11.60;;;11.80;99.90;;;12.03;100.00;102183.91;4991558;28;20046;-69
2024/02/04 05:38:17;;;;;;;32.60;11.60;;;11.80;99.90;;;12.00;100.00;102182.09;4990132;28;20063;-69
2024/02/04 05:40:46;;;;;;;32.63;10.60;;;11.80;99.90;;;12.00;100.00;102171.50;4991378;28;20042;-69
2024/02/04 05:43:14;;;;;;;30.98;10.43;;;11.80;99.90;;;12.01;100.00;102183.00;4991137;28;20038;-69
2024/02/04 05:45:42;;;;;;;30.92;10.68;;;11.70;99.90;;;12.04;100.00;102169.78;4990944;28;20469;-69
2024/02/04 05:48:11;;;;;;;27.67;10.20;;;11.80;99.90;;;11.99;100.00;102147.63;4991024;28;20392;-69
2024/02/04 05:50:40;;;;;;;32.47;11.13;;;11.70;99.90;;;11.89;100.00;102140.44;4990786;28;20050;-69
2024/02/04 05:53:10;;;;;;;33.22;11.60;;;11.70;99.90;;;11.90;100.00;102153.72;4990762;28;20047;-69
2024/02/04 05:55:38;;;;;;;29.52;11.38;;;11.70;99.90;;;11.90;100.00;102153.72;4991067;28;20038;-69
2024/02/04 05:58:07;;;;;;;30.33;12.13;;;11.70;99.90;;;11.88;100.00;102149.28;4990631;28;20116;-69
2024/02/04 06:00:35;;;;;;;38.03;11.30;;;11.70;99.90;;;11.94;100.00;102154.66;4990716;28;20066;-69
2024/02/04 06:03:05;;;;;;;33.35;11.93;;;11.70;99.90;;;11.95;100.00;102140.50;4989519;28;20050;-69
2024/02/04 06:05:33;;;;;;;33.08;11.38;;;11.70;99.90;;;12.00;100.00;102154.72;4990875;28;20726;-69
2024/02/04 06:08:02;;;;;;;33.47;11.65;;;11.70;99.90;;;12.06;100.00;102147.69;4990508;28;20047;-69
2024/02/04 06:10:31;;;;;;;32.25;11.18;;;11.80;99.90;;;12.06;100.00;102147.69;4990610;28;20073;-70
2024/02/04 06:13:00;;;;;;;32.90;11.93;;;11.80;99.90;;;12.06;100.00;102141.53;4990576;28;20089;-69
2024/02/04 06:15:28;;;;;;;30.55;10.75;;;11.80;99.90;;;12.07;100.00;102148.59;4991012;28;20046;-69
2024/02/04 06:17:56;;;;;;;30.42;11.18;;;11.80;99.90;;;12.13;100.00;102151.31;4990524;28;20069;-69
2024/02/04 06:20:25;;;;;;;28.33;10.80;;;11.90;99.90;;;12.21;100.00;102141.66;4990631;28;20399;-69
2024/02/04 06:22:53;;;;;;;27.00;10.65;;;12.00;99.90;;;12.04;100.00;102136.19;4990508;28;20512;-69
2024/02/04 06:25:21;;;;;;;33.55;11.38;;;11.80;99.90;;;12.00;100.00;102128.19;4990923;28;20046;-69
2024/02/04 06:27:51;;;;;;;35.20;11.70;;;11.80;99.90;;;12.10;100.00;102149.50;4990519;28;20129;-69
2024/02/04 06:30:20;;;;;;;35.22;11.25;;;11.80;99.90;;;12.15;100.00;102146.91;4990265;28;20050;-70
2024/02/04 06:32:49;;;;;;;33.08;11.80;;;11.90;99.90;;;12.20;100.00;102142.53;4990484;28;20077;-70
2024/02/04 06:35:18;;;;;;;30.77;10.95;;;11.90;99.90;;;12.23;100.00;102155.84;4990409;28;20047;-69
2024/02/04 06:37:46;;;;;;;38.53;11.80;;;11.90;99.90;;;11.94;100.00;102112.22;4990130;28;20064;-69
2024/02/04 06:40:15;;;;;;;31.80;10.80;;;11.90;99.90;;;12.04;100.00;102146.78;4990890;28;20061;-69
2024/02/04 06:42:43;;;;;;;45.47;12.15;;;11.80;99.90;;;11.97;100.00;102138.75;4990282;28;20077;-69
2024/02/04 06:45:14;;;;;;;38.58;12.18;;;11.70;99.90;;;11.87;100.00;102132.47;4992976;28;20058;-69
2024/02/04 06:47:44;;;;;;;41.03;11.75;;;11.80;99.90;;;11.94;100.00;102152.91;4994049;28;20074;-69
2024/02/04 06:50:13;;;;;;;;;;;11.70;99.90;;;11.93;100.00;102150.19;4994030;28;20057;-69
2024/02/04 06:52:43;;;;;;;42.38;12.30;;;11.70;99.90;;;11.95;100.00;102145.81;4993685;28;19941;-69
2024/02/04 06:55:12;;;;;;;35.30;11.33;;;11.70;99.90;;;11.95;100.00;102130.78;4993708;28;20130;-69
2024/02/04 06:57:40;;;;;;;33.42;10.23;;;11.70;99.90;;;12.03;100.00;102130.88;4993551;28;20376;-69
2024/02/04 07:00:11;;;;;;;31.85;10.43;;;11.80;99.90;;;12.11;100.00;102131.84;4993848;28;20152;-69
2024/02/04 07:02:41;;;;;;;35.67;10.30;;;11.90;99.90;;;12.01;100.00;102130.88;4993848;28;20070;-69
2024/02/04 07:05:10;;;;;;;35.67;10.57;;;11.80;99.90;;;11.83;100.00;102103.28;4993514;28;20710;-69
2024/02/04 07:07:38;;;;;;;31.48;9.88;;;11.80;99.90;;;12.07;100.00;102137.97;4992169;28;20379;-69
2024/02/04 07:10:08;;;;;;;28.90;9.95;;;11.80;99.90;;;12.02;100.00;102121.16;4993458;28;20443;-69
2024/02/04 07:12:36;;;;;;;25.48;9.13;;;11.80;99.90;;;11.86;100.00;102095.34;5008724;28;20376;-67
2024/02/04 07:15:06;;;;;;;26.73;9.65;;;11.70;99.90;;;11.94;100.00;102117.53;4992374;28;20061;-66
2024/02/04 07:17:34;;;;;;;24.70;9.25;;;11.70;99.90;;;11.93;100.00;102099.81;4993308;28;20561;-65
2024/02/04 07:20:06;;;;;;;26.63;9.57;;;11.70;99.90;;;11.92;100.00;102116.63;4993498;28;20096;-65
2024/02/04 07:22:35;;;;;;;32.15;9.32;;;11.70;99.90;;;11.78;100.00;102116.47;4993216;28;20046;-67
2024/02/04 07:25:06;;;;;;;30.60;9.63;;;11.60;99.90;;;11.78;100.00;102104.13;4993202;28;20043;-65
2024/02/04 07:27:34;;;;;;;26.83;9.77;;;11.50;99.90;;;11.87;100.00;102108.63;4993383;28;20046;-67
2024/02/04 07:30:04;;;;;;;26.33;10.23;;;11.60;99.90;;;11.86;100.00;102104.19;4993398;28;20403;-68
2024/02/04 07:32:34;;;;;;;31.70;9.88;;;11.60;99.90;;;11.85;100.00;102104.16;4993435;28;20042;-68
2024/02/04 07:35:05;;;;;;;27.70;8.95;;;11.60;99.90;;;11.91;100.00;102122.78;4993163;28;20518;-70
2024/02/04 07:37:34;;;;;;;29.73;9.38;;;11.60;99.90;;;11.97;100.00;102114.91;4993098;28;20054;-70
2024/02/04 07:40:05;;;;;;;31.00;10.23;;;11.70;99.90;;;11.90;100.00;102118.38;4993293;28;20550;-71
2024/02/04 07:42:33;;;;;;;28.80;9.02;;;11.70;99.90;;;11.87;100.00;102116.56;4993092;28;20039;-70
2024/02/04 07:45:08;;;;;;;31.30;9.05;;;11.70;99.90;;;11.92;100.00;102113.97;4992844;28;20042;-70
2024/02/04 07:47:36;;;;;;;32.63;10.20;;;11.70;99.90;;;11.85;100.00;102112.13;4992934;28;20466;-70
2024/02/04 07:50:08;;;;;;;25.90;9.30;;;11.60;99.90;;;11.77;100.00;102110.28;4992756;28;20120;-70
2024/02/04 07:52:37;;;;;;;29.25;8.63;;;11.60;99.90;;;11.87;100.00;102119.22;4992733;28;20046;-71
2024/02/04 07:55:09;;;;;;;33.55;9.20;;;11.60;99.90;;;11.87;100.00;102105.97;4992031;28;20097;-70
2024/02/04 07:57:37;;;;;;;28.17;8.60;;;11.60;99.90;;;11.84;100.00;102107.69;4992904;28;20042;-70
2024/02/04 08:00:10;;;;;;;25.92;7.90;;;11.60;99.90;;;11.82;100.00;102098.84;4993011;28;20121;-70
2024/02/04 08:02:41;;;;;;;25.83;8.32;;;11.70;99.90;;;11.89;100.00;102116.56;4992640;28;20057;-70
2024/02/04 08:05:11;;;;;;;21.27;7.88;;;11.60;99.90;;;11.91;100.00;102112.19;4993341;28;20050;-70
2024/02/04 08:07:40;;;;;;;19.63;7.32;;;11.70;99.90;;;11.16;100.00;101998.28;4993409;28;20675;-70
2024/02/04 08:10:10;;;;;;;28.92;8.27;;;11.70;99.90;;;11.91;100.00;102120.13;4992254;28;20046;-70
2024/02/04 08:12:38;;;;;;;24.73;8.05;;;11.70;99.90;;;11.92;100.00;102127.22;4992258;28;20040;-70
2024/02/04 08:15:08;;;;;;;21.45;7.40;;;11.70;99.90;;;11.41;100.00;102043.59;4991074;28;20407;-70
2024/02/04 08:17:37;;;;;;;25.43;7.40;;;11.70;99.90;;;11.94;100.00;102144.03;4992227;28;20050;-70
2024/02/04 08:20:07;;;;;;;22.80;7.35;;;11.70;99.90;;;11.90;100.00;102140.47;4992310;28;20300;-70
2024/02/04 08:22:37;;;;;;;25.15;7.45;;;11.70;99.90;;;11.83;100.00;102135.97;4994131;28;20480;-70
2024/02/04 08:25:06;;;;;;;20.05;7.30;;;11.70;99.90;;;11.81;100.00;102132.41;4994245;28;20384;-67
2024/02/04 08:27:35;;;;;;;23.40;7.72;;;11.60;99.90;;;11.91;100.00;102139.59;4993759;28;20038;-67
2024/02/04 08:30:04;;;;;;;25.70;6.97;;;11.70;99.90;;;11.88;100.00;102125.41;4993978;28;20472;-67
2024/02/04 08:32:33;;;;;;;31.95;8.57;;;11.60;99.90;;;11.91;100.00;102126.34;4992296;28;20463;-68
2024/02/04 08:35:01;;;;;;;27.30;7.95;;;11.70;99.90;;;11.89;100.00;102113.91;5008986;28;20571;-70
2024/02/04 08:37:30;;;;;;;21.30;7.70;;;11.70;99.90;;;11.94;100.00;102117.53;4993574;28;20121;-68
2024/02/04 08:40:00;;;;;;;18.92;6.65;;;11.70;99.90;;;11.99;100.00;102126.41;4993312;28;20538;-68
2024/02/04 08:42:28;;;;;;;23.90;7.50;;;11.80;99.90;;;12.04;100.00;102116.75;4992952;28;20057;-68
2024/02/04 08:44:56;;;;;;;20.02;7.32;;;11.80;99.90;;;12.10;100.00;102119.47;4993402;28;20074;-68
2024/02/04 08:47:25;;;;;;;23.58;7.50;;;11.90;99.90;;;11.98;100.00;102099.00;4992238;28;20050;-68
2024/02/04 08:49:54;;;;;;;24.67;7.28;;;11.90;99.90;;;11.97;100.00;102105.19;4993437;28;20054;-68
2024/02/04 08:52:24;;;;;;;20.47;6.33;;;11.80;99.90;;;11.98;100.00;102111.38;4993358;28;20408;-68
2024/02/04 08:54:53;;;;;;;15.87;6.37;;;11.80;99.90;;;12.08;100.00;102115.91;4993777;28;20473;-68
2024/02/04 08:57:22;;;;;;;24.48;7.18;;;11.80;99.90;;;12.11;100.00;102122.13;4993225;28;20380;-68
2024/02/04 08:59:51;;;;;;;19.43;6.47;;;11.90;99.90;;;12.06;100.00;102123.81;4993579;28;20105;-68
2024/02/04 09:02:19;;;;;;;16.75;6.05;;;11.90;99.90;;;12.17;100.00;102119.53;4993196;28;20034;-70
2024/02/04 09:04:48;;;;;;;18.05;5.82;;;11.90;99.90;;;12.22;100.00;102122.22;4993144;28;20069;-67
2024/02/04 09:07:16;;;;;;;17.67;5.38;;;11.90;99.90;;;12.23;100.00;102121.34;4992931;28;20121;-70
2024/02/04 09:09:45;;;;;;;20.52;5.97;;;12.00;99.90;;;12.21;100.00;102121.34;4993253;28;20547;-70
2024/02/04 09:12:13;;;;;;;19.45;6.22;;;12.00;99.90;;;12.25;100.00;102119.59;4992926;28;20429;-67
2024/02/04 09:14:44;;;;;;;16.80;5.50;;;12.00;99.90;;;11.62;100.00;102000.53;4991295;28;20531;-71
2024/02/04 09:17:13;;;;;;;;;;;12.10;99.90;;;12.24;100.00;102110.75;4992126;28;20085;-69
2024/02/04 09:19:41;;;;;;;9.70;5.05;;;12.10;99.90;;;12.32;100.00;102116.09;4991248;28;19929;-71
2024/02/04 09:22:10;;;;;;;9.88;5.85;;;12.10;99.90;;;12.35;100.00;102106.41;4992009;28;20048;-72
2024/02/04 09:24:39;;;;;;;11.93;7.35;;;12.10;99.90;;;12.26;100.00;102116.94;4992476;28;20049;-70
2024/02/04 09:27:08;;;;;;;12.38;7.03;;;12.00;99.90;;;11.87;100.00;102041.44;4991939;28;20109;-70
2024/02/04 09:29:36;;;;;;;21.17;7.72;;;12.10;99.90;;;12.36;100.00;102128.53;4991781;28;20318;-69
2024/02/04 09:32:07;;;;;;;21.92;6.93;;;12.10;99.90;;;12.30;100.00;102123.16;4992688;28;20042;-69
2024/02/04 09:34:36;;;;;;;26.52;7.45;;;12.10;99.90;;;12.23;100.00;102116.03;4992469;28;20042;-70
2024/02/04 09:37:05;;;;;;;21.40;7.00;;;12.00;99.90;;;12.16;100.00;102127.44;4992441;28;20042;-68
2024/02/04 09:39:33;;;;;;;22.83;6.68;;;12.00;99.90;;;12.09;100.00;102129.19;4992716;28;20147;-69
2024/02/04 09:42:03;;;;;;;18.25;6.45;;;11.90;99.90;;;12.16;100.00;102122.16;4992964;28;20473;-69
2024/02/04 09:44:33;;;;;;;17.63;6.50;;;11.90;99.90;;;12.19;100.00;102112.47;4992946;28;20039;-69
2024/02/04 09:47:02;;;;;;;23.15;6.97;;;11.90;99.90;;;12.19;100.00;102100.97;4992879;28;20054;-70
2024/02/04 09:49:32;;;;;;;22.35;6.45;;;11.90;99.90;;;10.51;100.00;101815.81;4992671;28;20064;-70
2024/02/04 09:52:05;;;;;;;26.15;7.20;;;11.90;99.90;;;12.16;100.00;102109.78;4992869;28;20046;-70
2024/02/04 09:54:45;;;;;;;19.35;6.53;;;11.90;99.90;;;12.19;100.00;102100.97;4993124;28;20399;-70
2024/02/04 09:57:15;;;;;;;16.50;6.22;;;12.00;99.90;;;12.21;100.00;102092.16;4991549;28;20086;-70
2024/02/04 09:59:47;;;;;;;20.85;6.63;;;12.00;99.90;;;12.26;100.00;102116.06;4992385;28;20138;-70
2024/02/04 10:02:16;;;;;;;22.27;6.28;;;12.00;99.90;;;12.14;100.00;102094.72;4992607;28;20054;-70
2024/02/04 10:04:51;;;;;;;17.55;5.70;;;12.00;99.90;;;12.16;100.00;102108.88;4993143;28;20038;-70